Time;durP1;ratioP1;P1;durP2;ratioP2;P2;SDS_P1;SDS_P2;PMS_P1;PMS_P2;Temp;Humidity;BMP_temperature;BMP_pressure;BME280_temperature;BME280_humidity;BME280_pressure;Samples;Min_cycle;Max_cycle;Signal;HPM_P1;HPM_P2
2021/12/05 00:23:44;;;;;;;;;;;3.40;99.90;;;;;;5022082;28;20053;-48
2021/12/05 00:26:16;;;;;;;13.68;5.90;;;3.40;99.90;;;;;;5009961;28;20507;-48
2021/12/05 00:29:02;;;;;;;15.23;5.63;;;3.40;99.90;;;;;;5011718;28;20467;-49
2021/12/05 00:55:28;;;;;;;15.40;7.00;;;3.40;99.90;;;;;;5021813;28;20139;-49
2021/12/05 01:14:20;;;;;;;21.55;9.88;;;3.50;99.90;;;;;;4998161;28;20141;-51
2021/12/05 01:16:47;;;;;;;23.05;9.20;;;3.40;99.90;;;;;;4998844;28;20057;-47
2021/12/05 01:19:16;;;;;;;20.30;9.50;;;3.50;99.90;;;;;;4997405;28;20638;-48
2021/12/05 01:21:44;;;;;;;23.45;10.93;;;3.40;99.90;;;;;;4998000;28;20208;-48
2021/12/05 01:26:56;;;;;;;18.80;10.15;;;3.40;99.90;;;;;;4998655;28;20054;-48
2021/12/05 01:29:32;;;;;;;26.83;10.30;;;3.40;99.90;;;;;;4993422;28;20054;-48
2021/12/05 01:59:09;;;;;;;24.77;11.13;;;3.30;99.90;;;;;;5021985;28;20088;-48
2021/12/05 02:42:58;;;;;;;23.83;11.75;;;3.60;99.90;;;;;;4981277;28;20054;-48
2021/12/05 02:44:57;;;;;;;25.40;11.90;;;3.60;99.90;;;;;;4980850;28;20064;-45
2021/12/05 02:47:26;;;;;;;26.00;11.57;;;3.60;99.90;;;;;;4980716;28;20050;-47
2021/12/05 02:49:55;;;;;;;24.73;11.70;;;3.60;99.90;;;;;;4987611;28;20054;-46
2021/12/05 02:52:28;;;;;;;28.05;11.88;;;3.60;99.90;;;;;;4984994;28;20155;-46
2021/12/05 02:54:59;;;;;;;28.42;12.77;;;3.60;99.90;;;;;;4961537;28;20506;-47
2021/12/05 03:00:20;;;;;;;25.35;12.43;;;3.60;99.90;;;;;;4959589;28;20510;-46
2021/12/05 03:02:49;;;;;;;26.00;11.98;;;3.60;99.90;;;;;;4960226;28;20062;-47
2021/12/05 03:05:21;;;;;;;28.75;12.95;;;3.60;99.90;;;;;;4983036;28;20062;-47
2021/12/05 03:07:49;;;;;;;34.30;13.52;;;3.60;99.90;;;;;;4985328;28;20061;-46
2021/12/05 03:10:18;;;;;;;25.42;13.15;;;3.60;99.90;;;;;;5003004;28;20119;-48
2021/12/05 03:12:46;;;;;;;27.35;14.02;;;3.60;99.90;;;;;;5003701;28;20122;-49
2021/12/05 03:15:17;;;;;;;23.70;13.43;;;3.60;99.90;;;;;;4968274;28;20053;-48
2021/12/05 03:17:43;;;;;;;32.80;15.30;;;3.60;99.90;;;;;;5003689;28;20046;-46
2021/12/05 03:20:12;;;;;;;41.80;18.48;;;3.60;99.90;;;;;;5004568;28;20045;-46
2021/12/05 03:22:38;;;;;;;33.80;16.10;;;3.60;99.90;;;;;;5006416;28;20495;-47
2021/12/05 03:25:05;;;;;;;33.00;15.20;;;3.60;99.90;;;;;;4997307;28;20050;-53
2021/12/05 03:27:34;;;;;;;32.22;15.98;;;3.60;99.90;;;;;;4967679;28;20616;-46
2021/12/05 03:30:01;;;;;;;30.02;16.00;;;3.60;99.90;;;;;;4985420;28;20049;-45
2021/12/05 03:32:27;;;;;;;31.30;16.00;;;3.60;99.90;;;;;;4967868;28;20066;-46
2021/12/05 03:34:53;;;;;;;32.78;15.95;;;3.60;99.90;;;;;;4996268;28;20572;-46
2021/12/05 03:37:19;;;;;;;39.90;17.00;;;3.50;99.90;;;;;;4989994;28;20085;-47
2021/12/05 03:39:45;;;;;;;33.78;16.30;;;3.50;99.90;;;;;;4984372;28;20465;-47
2021/12/05 03:42:11;;;;;;;39.45;17.48;;;3.50;99.90;;;;;;4996583;28;20107;-46
2021/12/05 03:44:38;;;;;;;41.83;17.55;;;3.40;99.90;;;;;;4991971;28;20346;-46
2021/12/05 03:47:06;;;;;;;41.45;18.83;;;3.40;99.90;;;;;;4985354;28;20112;-46
2021/12/05 03:49:33;;;;;;;42.38;17.27;;;3.30;99.90;;;;;;5006159;28;20136;-45
2021/12/05 03:52:08;;;;;;;38.65;17.42;;;3.30;99.90;;;;;;5021990;28;20049;-46
2021/12/05 03:54:34;;;;;;;37.50;17.40;;;3.20;99.90;;;;;;5021487;28;20541;-46
2021/12/05 03:57:02;;;;;;;39.13;17.90;;;3.20;99.90;;;;;;5002722;28;20416;-46
2021/12/05 03:59:28;;;;;;;38.25;17.33;;;3.10;99.90;;;;;;5021542;28;20511;-45
2021/12/05 04:01:55;;;;;;;39.25;18.65;;;3.10;99.90;;;;;;5003137;28;20132;-46
2021/12/05 04:04:22;;;;;;;34.05;17.92;;;3.00;99.90;;;;;;5004134;28;20063;-49
2021/12/05 04:06:48;;;;;;;35.60;17.95;;;2.90;99.90;;;;;;5021046;28;20064;-46
2021/12/05 04:09:16;;;;;;;34.38;17.50;;;2.90;99.90;;;;;;5021841;28;20352;-46
2021/12/05 04:11:45;;;;;;;47.15;19.20;;;2.90;99.90;;;;;;4990232;28;20080;-49
2021/12/05 04:14:14;;;;;;;40.50;18.95;;;2.80;99.90;;;;;;5011894;28;20519;-45
2021/12/05 04:16:42;;;;;;;37.92;18.55;;;2.80;99.90;;;;;;4973304;28;20060;-47
2021/12/05 04:19:08;;;;;;;37.40;20.17;;;2.80;99.90;;;;;;5003163;28;20077;-46
2021/12/05 04:21:37;;;;;;;38.03;19.58;;;2.80;99.90;;;;;;5020359;28;20049;-46
2021/12/05 04:24:07;;;;;;;47.20;20.92;;;2.80;99.90;;;;;;5021800;28;20050;-46
2021/12/05 04:26:33;;;;;;;36.55;20.85;;;2.80;99.90;;;;;;5021605;28;20998;-48
2021/12/05 04:28:59;;;;;;;45.83;21.25;;;2.80;99.90;;;;;;5010902;28;20050;-46
2021/12/05 04:31:24;;;;;;;45.58;20.48;;;2.70;99.90;;;;;;4975899;28;20054;-50
2021/12/05 04:33:51;;;;;;;40.90;20.17;;;2.70;99.90;;;;;;4989691;28;20049;-48
2021/12/05 04:36:18;;;;;;;38.95;19.88;;;2.70;99.90;;;;;;4998255;28;20452;-47
2021/12/05 04:38:44;;;;;;;36.10;19.17;;;2.60;99.90;;;;;;5002211;28;20193;-46
2021/12/05 04:41:10;;;;;;;34.47;18.23;;;2.70;99.90;;;;;;5003604;28;20489;-46
2021/12/05 04:43:39;;;;;;;39.83;19.05;;;2.60;99.90;;;;;;5006372;28;20564;-49
2021/12/05 04:46:17;;;;;;;35.25;19.60;;;2.60;99.90;;;;;;5007715;28;20054;-46
2021/12/05 04:48:46;;;;;;;38.08;19.40;;;2.50;99.90;;;;;;5015694;28;20060;-48
2021/12/05 04:51:13;;;;;;;37.00;19.10;;;2.50;99.90;;;;;;5001882;28;20096;-47
2021/12/05 04:53:39;;;;;;;32.33;18.02;;;2.40;99.90;;;;;;5002784;28;20053;-46
2021/12/05 04:56:06;;;;;;;37.40;18.88;;;2.40;99.90;;;;;;5007477;28;20056;-46
2021/12/05 04:58:33;;;;;;;39.55;20.23;;;2.40;99.90;;;;;;5013210;28;20137;-46
2021/12/05 05:00:58;;;;;;;40.92;20.02;;;2.40;99.90;;;;;;5020726;28;20060;-46
2021/12/05 05:03:26;;;;;;;36.78;20.08;;;2.40;99.90;;;;;;5007913;28;20373;-45
2021/12/05 05:08:52;;;;;;;35.42;17.95;;;2.40;99.90;;;;;;4920536;29;20083;-46
2021/12/05 05:11:21;;;;;;;37.08;16.85;;;2.30;99.90;;;;;;4921590;29;20060;-47
2021/12/05 05:13:47;;;;;;;34.45;16.85;;;2.30;99.90;;;;;;4919477;29;20613;-47
2021/12/05 05:16:16;;;;;;;35.35;16.65;;;2.30;99.90;;;;;;4921055;29;20048;-46
2021/12/05 05:18:48;;;;;;;31.50;16.33;;;2.30;99.90;;;;;;4924107;29;20171;-46
2021/12/05 05:40:23;;;;;;;35.45;15.55;;;2.10;99.90;;;;;;4927835;29;20086;-46
2021/12/05 05:50:17;;;;;;;36.40;15.68;;;2.00;99.90;;;;;;5016708;28;20061;-47
2021/12/05 05:52:43;;;;;;;32.70;14.88;;;2.00;99.90;;;;;;5017425;28;20408;-48
2021/12/05 05:55:10;;;;;;;33.05;16.40;;;2.10;99.90;;;;;;4999809;28;20064;-49
2021/12/05 06:00:36;;;;;;;29.58;14.85;;;2.10;99.90;;;;;;4940884;28;20077;-50
2021/12/05 06:03:26;;;;;;;35.72;14.07;;;2.20;99.90;;;;;;4943689;29;20082;-50
2021/12/05 06:05:55;;;;;;;27.38;13.95;;;2.20;99.90;;;;;;4933602;28;20118;-48
2021/12/05 06:08:25;;;;;;;37.25;14.65;;;2.20;99.90;;;;;;4942444;29;20524;-49
2021/12/05 06:11:03;;;;;;;27.15;12.77;;;2.20;99.90;;;;;;4942791;29;20122;-49
2021/12/05 06:13:32;;;;;;;32.83;13.43;;;2.30;99.90;;;;;;4942143;28;20154;-48
2021/12/05 06:15:58;;;;;;;34.00;13.40;;;2.30;99.90;;;;;;4943684;29;20051;-48
2021/12/05 06:18:25;;;;;;;28.33;13.07;;;2.30;99.90;;;;;;4943898;28;20054;-47
2021/12/05 06:20:52;;;;;;;31.85;12.57;;;2.30;99.90;;;;;;4926603;29;20096;-48
2021/12/05 06:23:19;;;;;;;31.20;12.85;;;2.40;99.90;;;;;;4947271;28;20494;-48
2021/12/05 06:25:49;;;;;;;29.20;11.55;;;2.40;99.90;;;;;;4943219;28;20059;-48
2021/12/05 06:28:16;;;;;;;27.98;10.80;;;2.40;99.90;;;;;;4943156;28;20086;-47
2021/12/05 06:39:21;;;;;;;26.65;10.48;;;2.50;99.90;;;;;;5006646;28;20074;-49
2021/12/05 06:47:13;;;;;;;27.08;11.35;;;2.60;99.90;;;;;;5010337;28;20056;-50
2021/12/05 06:49:41;;;;;;;26.15;10.70;;;2.70;99.90;;;;;;5015767;28;20157;-51
2021/12/05 06:52:08;;;;;;;30.65;11.23;;;2.70;99.90;;;;;;5005799;28;20042;-48
2021/12/05 06:54:36;;;;;;;24.50;11.00;;;2.70;99.90;;;;;;5012222;28;20060;-48
2021/12/05 06:57:06;;;;;;;30.58;11.25;;;2.80;99.90;;;;;;4987542;28;20054;-49
2021/12/05 06:59:32;;;;;;;40.65;11.50;;;2.70;99.90;;;;;;5004670;28;20050;-47
2021/12/05 07:01:58;;;;;;;23.27;10.52;;;2.70;99.90;;;;;;5006931;28;20068;-48
2021/12/05 07:06:52;;;;;;;22.10;10.90;;;2.80;99.90;;;;;;5005894;28;20131;-51
2021/12/05 07:09:18;;;;;;;31.17;12.40;;;2.80;99.90;;;;;;5014201;28;20496;-48
2021/12/05 07:23:11;;;;;;;22.10;10.93;;;2.90;99.90;;;;;;5021634;28;20581;-46
2021/12/05 07:25:49;;;;;;;27.08;10.50;;;2.80;99.90;;;;;;5021581;28;20103;-46
2021/12/05 07:42:08;;;;;;;23.35;11.15;;;2.90;99.90;;;;;;5005047;28;20099;-46
2021/12/05 07:44:34;;;;;;;23.15;11.40;;;3.00;99.90;;;;;;5022544;28;20152;-49
2021/12/05 07:47:01;;;;;;;19.90;10.45;;;3.00;99.90;;;;;;5008959;28;20068;-46
2021/12/05 07:49:27;;;;;;;28.52;11.15;;;3.00;99.90;;;;;;5010979;28;20049;-45
2021/12/05 07:51:56;;;;;;;23.40;11.27;;;3.00;99.90;;;;;;5010804;28;20872;-46
2021/12/05 07:57:20;;;;;;;26.85;11.20;;;3.10;99.90;;;;;;5007773;28;20088;-49
2021/12/05 08:00:12;;;;;;;22.00;11.38;;;3.10;99.90;;;;;;5021553;28;20076;-47
2021/12/05 08:16:30;;;;;;;26.67;13.65;;;3.20;99.90;;;;;;5006468;28;20041;-46
2021/12/05 08:18:57;;;;;;;25.98;14.10;;;3.30;99.90;;;;;;5019255;28;20056;-46
2021/12/05 08:21:22;;;;;;;27.25;13.93;;;3.20;99.90;;;;;;5020723;28;20476;-47
2021/12/05 08:23:49;;;;;;;30.30;12.88;;;3.30;99.90;;;;;;5003256;28;20060;-45
2021/12/05 08:26:21;;;;;;;25.20;14.55;;;3.30;99.90;;;;;;5003527;28;20049;-45
2021/12/05 09:52:26;;;;;;;24.13;13.40;;;4.00;99.90;;;;;;5016587;28;20064;-47
2021/12/05 10:03:07;;;;;;;28.88;14.32;;;4.10;99.90;;;;;;5014034;28;20050;-47
2021/12/05 10:11:23;;;;;;;37.60;17.48;;;4.20;99.90;;;;;;5023830;28;20089;-50
2021/12/05 10:33:52;;;;;;;24.58;14.10;;;4.40;99.90;;;;;;4931930;29;20051;-49
2021/12/05 10:36:27;;;;;;;26.92;15.55;;;4.40;99.90;;;;;;4911061;29;20051;-50
2021/12/05 10:38:59;;;;;;;19.17;13.90;;;4.40;99.90;;;;;;4930653;29;20581;-50
2021/12/05 10:43:59;;;;;;;25.73;13.77;;;4.40;99.90;;;;;;4932477;29;20531;-47
2021/12/05 10:46:26;;;;;;;22.42;13.55;;;4.40;99.90;;;;;;4932235;29;20294;-48
2021/12/05 10:49:00;;;;;;;22.35;14.30;;;4.50;99.90;;;;;;4919161;29;20174;-47
2021/12/05 10:51:29;;;;;;;23.73;13.07;;;4.40;99.90;;;;;;4933474;29;20055;-47
2021/12/05 10:54:04;;;;;;;30.10;13.55;;;4.40;99.90;;;;;;4923759;29;20051;-48
2021/12/05 10:56:39;;;;;;;22.00;13.48;;;4.40;99.90;;;;;;4980246;28;20065;-49
2021/12/05 10:59:11;;;;;;;23.83;13.70;;;4.40;99.90;;;;;;5023284;28;20073;-49
2021/12/05 11:01:58;;;;;;;18.67;11.60;;;4.40;99.90;;;;;;5022429;28;20104;-48
2021/12/05 11:04:29;;;;;;;24.50;12.70;;;4.40;99.90;;;;;;5021674;28;20477;-48
2021/12/05 11:07:00;;;;;;;22.10;12.15;;;4.50;99.90;;;;;;4999088;28;20131;-50
2021/12/05 11:09:40;;;;;;;20.95;11.77;;;4.50;99.90;;;;;;5020696;28;20049;-49
2021/12/05 11:12:24;;;;;;;22.63;13.23;;;4.50;99.90;;;;;;5016897;28;20081;-48
2021/12/05 11:14:55;;;;;;;18.77;11.98;;;4.50;99.90;;;;;;5011953;28;20053;-48
2021/12/05 11:17:24;;;;;;;24.52;13.15;;;4.50;99.90;;;;;;5015406;28;20537;-49
2021/12/05 11:20:03;;;;;;;23.77;12.50;;;4.50;99.90;;;;;;5008361;28;20060;-50
2021/12/05 11:22:33;;;;;;;18.30;10.52;;;4.50;99.90;;;;;;5020435;28;20053;-50
2021/12/05 11:25:12;;;;;;;16.85;11.30;;;4.50;99.90;;;;;;5018992;28;20061;-49
2021/12/05 11:27:43;;;;;;;17.20;11.65;;;4.50;99.90;;;;;;5013476;28;20052;-48
2021/12/05 11:30:20;;;;;;;19.88;12.82;;;4.50;99.90;;;;;;5010042;28;20037;-51
2021/12/05 11:32:51;;;;;;;20.20;13.25;;;4.50;99.90;;;;;;5012086;28;20492;-47
2021/12/05 11:35:26;;;;;;;21.05;12.40;;;4.50;99.90;;;;;;5018037;28;20432;-47
2021/12/05 11:37:59;;;;;;;20.85;14.18;;;4.50;99.90;;;;;;5013005;28;20067;-47
2021/12/05 11:40:27;;;;;;;;;;;4.50;99.90;;;;;;5008204;28;20038;-48
2021/12/05 11:43:03;;;;;;;22.85;17.25;;;4.50;99.90;;;;;;5003372;28;20043;-48
2021/12/05 11:45:31;;;;;;;21.48;13.02;;;4.50;99.90;;;;;;5002322;28;20049;-47
2021/12/05 11:47:58;;;;;;;19.98;10.90;;;4.50;99.90;;;;;;5003169;28;20050;-51
2021/12/05 11:50:37;;;;;;;18.98;10.80;;;4.50;99.90;;;;;;5002731;28;20042;-47
2021/12/05 11:53:03;;;;;;;19.25;11.32;;;4.50;99.90;;;;;;5001140;28;20093;-49
2021/12/05 11:55:33;;;;;;;17.73;9.65;;;4.50;99.90;;;;;;5008099;28;20045;-49
2021/12/05 11:58:00;;;;;;;15.77;11.15;;;4.50;99.90;;;;;;5014728;28;20049;-48
2021/12/05 12:00:31;;;;;;;20.65;12.10;;;4.50;99.90;;;;;;5012947;28;20416;-48
2021/12/05 12:02:59;;;;;;;17.90;10.25;;;4.50;99.90;;;;;;5018345;28;20053;-47
2021/12/05 12:05:29;;;;;;;19.58;11.30;;;4.50;99.90;;;;;;5022144;28;20060;-48
2021/12/05 12:08:05;;;;;;;17.55;10.93;;;4.50;99.90;;;;;;5021930;28;20057;-48
2021/12/05 12:10:42;;;;;;;16.25;10.55;;;4.50;99.90;;;;;;5012297;28;20561;-51
2021/12/05 12:13:13;;;;;;;21.58;11.75;;;4.60;99.90;;;;;;5021204;28;20050;-51
2021/12/05 12:15:42;;;;;;;16.48;11.65;;;4.60;99.90;;;;;;5022184;28;20090;-48
2021/12/05 12:18:17;;;;;;;16.10;11.45;;;4.60;99.90;;;;;;5022054;28;20055;-48
2021/12/05 12:20:46;;;;;;;20.13;12.02;;;4.60;99.90;;;;;;5003833;28;20049;-49
2021/12/05 12:23:19;;;;;;;17.25;11.40;;;4.60;99.90;;;;;;5023258;28;20052;-51
2021/12/05 12:25:48;;;;;;;27.15;14.77;;;4.60;99.90;;;;;;5004335;28;20411;-49
2021/12/05 12:28:15;;;;;;;20.67;15.00;;;4.70;99.90;;;;;;5002261;28;20053;-48
2021/12/05 12:30:48;;;;;;;19.27;13.35;;;4.70;99.90;;;;;;4996260;28;20046;-50
2021/12/05 12:33:39;;;;;;;20.40;13.07;;;4.70;99.90;;;;;;5026284;28;20046;-51
2021/12/05 12:36:05;;;;;;;24.23;14.50;;;4.80;99.90;;;;;;5022354;28;20045;-50
2021/12/05 12:38:31;;;;;;;21.02;11.23;;;4.90;99.90;;;;;;5000259;28;20049;-52
2021/12/05 12:41:12;;;;;;;17.15;10.82;;;4.90;99.90;;;;;;5012287;28;20060;-48
2021/12/05 12:43:49;;;;;;;16.23;10.43;;;5.00;99.90;;;;;;5001820;28;20112;-47
2021/12/05 12:46:50;;;;;;;22.33;10.65;;;5.00;99.90;;;;;;4992152;28;20060;-47
2021/12/05 12:49:16;;;;;;;14.48;8.90;;;5.10;99.90;;;;;;4933769;29;20498;-48
2021/12/05 12:51:45;;;;;;;20.33;12.13;;;5.10;99.90;;;;;;4918225;29;20063;-49
2021/12/05 12:54:15;;;;;;;13.10;8.90;;;5.10;99.90;;;;;;4922665;29;20518;-50
2021/12/05 12:56:58;;;;;;;17.90;9.35;;;5.10;99.90;;;;;;4922260;29;20079;-50
2021/12/05 12:59:30;;;;;;;17.45;9.82;;;5.20;99.90;;;;;;4925356;28;20064;-50
2021/12/05 13:10:11;;;;;;;12.23;9.40;;;5.30;99.90;;;;;;4937202;29;20058;-48
2021/12/05 13:12:44;;;;;;;20.33;9.63;;;5.30;99.90;;;;;;4931794;29;20568;-49
2021/12/05 13:15:19;;;;;;;13.82;9.43;;;5.30;99.90;;;;;;4938184;29;20051;-48
2021/12/05 13:17:50;;;;;;;14.63;8.05;;;5.40;99.90;;;;;;4940605;29;20290;-47
2021/12/05 13:20:19;;;;;;;17.98;9.10;;;5.40;99.90;;;;;;4955009;28;20097;-47
2021/12/05 13:23:08;;;;;;;14.20;8.85;;;5.40;99.90;;;;;;4958849;28;20061;-47
2021/12/05 13:26:02;;;;;;;12.77;8.45;;;5.30;99.90;;;;;;4988751;28;20080;-48
2021/12/05 13:28:44;;;;;;;9.70;6.10;;;5.30;99.90;;;;;;5013827;28;20064;-48
2021/12/05 13:31:28;;;;;;;11.73;7.47;;;5.30;99.90;;;;;;5019869;28;20065;-51
2021/12/05 13:34:31;;;;;;;14.80;8.80;;;5.30;99.90;;;;;;5022418;28;20415;-48
2021/12/05 13:37:26;;;;;;;11.68;9.18;;;5.30;99.90;;;;;;5013980;28;20060;-49
2021/12/05 13:39:55;;;;;;;15.05;8.90;;;5.30;99.90;;;;;;5013653;28;20053;-51
2021/12/05 13:42:42;;;;;;;15.65;9.52;;;5.30;99.90;;;;;;5028145;28;20060;-51
2021/12/05 13:45:21;;;;;;;13.60;7.85;;;5.30;99.90;;;;;;5025501;28;20049;-54
2021/12/05 13:47:52;;;;;;;10.13;7.75;;;5.40;99.90;;;;;;5024882;28;20103;-50
2021/12/05 13:50:25;;;;;;;14.90;8.85;;;5.40;99.90;;;;;;5025725;28;20791;-48
2021/12/05 13:53:03;;;;;;;10.63;8.15;;;5.30;99.90;;;;;;5024582;28;20061;-47
2021/12/05 13:55:59;;;;;;;13.43;7.63;;;5.30;99.90;;;;;;5023082;28;20092;-48
2021/12/05 13:58:30;;;;;;;13.73;8.18;;;5.30;99.90;;;;;;5023604;28;20404;-48
2021/12/05 14:01:11;;;;;;;12.18;8.00;;;5.30;99.90;;;;;;5023909;28;20046;-48
2021/12/05 14:03:51;;;;;;;9.35;8.02;;;5.30;99.90;;;;;;5023782;28;20061;-47
2021/12/05 14:06:29;;;;;;;11.75;7.75;;;5.30;99.90;;;;;;5018981;28;20053;-47
2021/12/05 14:09:01;;;;;;;11.65;7.05;;;5.30;99.90;;;;;;5020834;28;20045;-48
2021/12/05 14:11:27;;;;;;;10.57;7.85;;;5.30;99.90;;;;;;5022888;28;20420;-48
2021/12/05 14:13:53;;;;;;;11.02;7.05;;;5.30;99.90;;;;;;5023403;28;20053;-48
2021/12/05 14:16:28;;;;;;;12.02;8.23;;;5.30;99.90;;;;;;5022160;28;20415;-49
2021/12/05 14:18:54;;;;;;;13.30;7.35;;;5.30;99.90;;;;;;5024239;28;20060;-49
2021/12/05 14:21:22;;;;;;;13.68;8.00;;;5.20;99.90;;;;;;5021108;28;20054;-47
2021/12/05 14:23:50;;;;;;;15.20;7.93;;;5.20;99.90;;;;;;5024475;28;20071;-48
2021/12/05 14:26:17;;;;;;;10.25;7.35;;;5.20;99.90;;;;;;5023688;28;20045;-50
2021/12/05 14:28:53;;;;;;;10.75;8.07;;;5.10;99.90;;;;;;5023297;28;20606;-50
2021/12/05 14:31:27;;;;;;;11.82;7.35;;;5.20;99.90;;;;;;5023196;28;20042;-48
2021/12/05 14:33:54;;;;;;;12.80;7.93;;;5.10;99.90;;;;;;5002753;28;20042;-47
2021/12/05 14:36:31;;;;;;;11.70;9.23;;;5.10;99.90;;;;;;5024922;28;20053;-50
2021/12/05 14:39:11;;;;;;;12.95;8.48;;;5.10;99.90;;;;;;5005049;28;20414;-48
2021/12/05 14:41:39;;;;;;;12.88;8.27;;;5.10;99.90;;;;;;5005628;28;20064;-47
2021/12/05 14:44:05;;;;;;;14.30;8.93;;;5.00;99.90;;;;;;5023854;28;20096;-48
2021/12/05 14:46:32;;;;;;;14.27;8.45;;;5.00;99.90;;;;;;5005903;28;20572;-50
2021/12/05 14:49:02;;;;;;;10.77;8.40;;;5.00;99.90;;;;;;5023576;28;20088;-48
2021/12/05 14:51:45;;;;;;;13.57;8.20;;;5.00;99.90;;;;;;5024445;28;20050;-48
2021/12/05 14:54:23;;;;;;;12.32;9.15;;;5.00;99.90;;;;;;5024396;28;20097;-51
2021/12/05 14:56:49;;;;;;;14.63;9.02;;;5.00;99.90;;;;;;5004115;28;20061;-51
2021/12/05 14:59:16;;;;;;;14.05;9.50;;;5.00;99.90;;;;;;5023525;28;20531;-48
2021/12/05 15:01:47;;;;;;;15.75;10.13;;;5.00;99.90;;;;;;5022709;28;20050;-47
2021/12/05 15:04:17;;;;;;;16.35;10.00;;;4.90;99.90;;;;;;5023574;28;20381;-48
2021/12/05 15:06:44;;;;;;;12.90;9.10;;;5.00;99.90;;;;;;5003981;28;20097;-47
2021/12/05 15:09:50;;;;;;;19.60;9.25;;;4.90;99.90;;;;;;5022902;28;20052;-49
2021/12/05 15:12:23;;;;;;;16.30;10.65;;;4.90;99.90;;;;;;4940371;29;20232;-47
2021/12/05 15:14:52;;;;;;;;;;;4.90;99.90;;;;;;4939622;29;20106;-49
2021/12/05 15:17:29;;;;;;;17.90;11.30;;;4.90;99.90;;;;;;4941085;29;19967;-48
2021/12/05 15:20:08;;;;;;;13.77;10.32;;;4.90;99.90;;;;;;4953759;28;20066;-48
2021/12/05 15:22:36;;;;;;;20.25;10.02;;;4.90;99.90;;;;;;4958517;28;20524;-48
2021/12/05 15:25:06;;;;;;;16.50;10.05;;;4.80;99.90;;;;;;4960264;28;20129;-48
2021/12/05 15:27:33;;;;;;;15.40;10.07;;;4.90;99.90;;;;;;4958452;28;20117;-48
2021/12/05 15:30:35;;;;;;;11.32;9.50;;;4.90;99.90;;;;;;4954425;28;20130;-48
2021/12/05 15:33:22;;;;;;;15.55;9.57;;;4.80;99.90;;;;;;4919768;29;20498;-48
2021/12/05 15:35:49;;;;;;;16.13;9.95;;;4.80;99.90;;;;;;4919987;29;20059;-49
2021/12/05 15:38:21;;;;;;;13.73;9.18;;;4.80;99.90;;;;;;4922187;29;20051;-48
2021/12/05 15:40:49;;;;;;;16.38;10.10;;;4.80;99.90;;;;;;4921753;29;20570;-47
2021/12/05 15:43:19;;;;;;;13.82;9.18;;;4.80;99.90;;;;;;4922394;29;20063;-47
2021/12/05 15:45:48;;;;;;;14.25;10.05;;;4.80;99.90;;;;;;4921493;29;20601;-48
2021/12/05 15:48:29;;;;;;;14.80;9.25;;;4.80;99.90;;;;;;4933453;28;20234;-49
2021/12/05 15:50:57;;;;;;;13.10;9.60;;;4.80;99.90;;;;;;4961465;28;20055;-50
2021/12/05 15:53:25;;;;;;;15.57;10.43;;;4.80;99.90;;;;;;4960334;28;20821;-47
2021/12/05 15:56:00;;;;;;;16.10;10.70;;;4.70;99.90;;;;;;4960173;28;20062;-48
2021/12/05 15:58:51;;;;;;;13.75;10.25;;;4.70;99.90;;;;;;4962017;28;20098;-49
2021/12/05 16:01:24;;;;;;;12.95;10.40;;;4.70;99.90;;;;;;4947873;28;20082;-47
2021/12/05 16:04:02;;;;;;;15.23;10.10;;;4.70;99.90;;;;;;4941877;28;20098;-50
2021/12/05 16:06:39;;;;;;;15.93;10.68;;;4.70;99.90;;;;;;4956176;28;20074;-48
2021/12/05 16:09:20;;;;;;;14.23;9.93;;;4.60;99.90;;;;;;4964308;28;20081;-48
2021/12/05 16:11:49;;;;;;;16.80;11.52;;;4.60;99.90;;;;;;5017220;28;20380;-49
2021/12/05 16:14:28;;;;;;;13.75;10.55;;;4.50;99.90;;;;;;5004116;28;20053;-49
2021/12/05 16:16:54;;;;;;;14.95;11.15;;;4.50;99.90;;;;;;5016355;28;20068;-48
2021/12/05 16:19:19;;;;;;;17.10;12.00;;;4.50;99.90;;;;;;5020073;28;20516;-53
2021/12/05 16:21:45;;;;;;;18.08;11.25;;;4.40;99.90;;;;;;5013956;28;20511;-48
2021/12/05 16:24:20;;;;;;;18.08;11.20;;;4.40;99.90;;;;;;5015110;28;20084;-49
2021/12/05 16:26:48;;;;;;;15.65;12.40;;;4.50;99.90;;;;;;5003676;28;20148;-48
2021/12/05 16:29:22;;;;;;;19.27;11.52;;;4.40;99.90;;;;;;5002773;28;20496;-48
2021/12/05 16:31:55;;;;;;;19.58;12.88;;;4.40;99.90;;;;;;5013743;28;20455;-47
2021/12/05 16:34:29;;;;;;;17.67;12.88;;;4.40;99.90;;;;;;5009542;28;20058;-47
2021/12/05 16:37:00;;;;;;;18.00;12.65;;;4.30;99.90;;;;;;5013722;28;20049;-47
2021/12/05 16:39:38;;;;;;;17.50;13.15;;;4.40;99.90;;;;;;5019770;28;20504;-47
2021/12/05 16:42:19;;;;;;;26.23;14.13;;;4.30;99.90;;;;;;5018554;28;20137;-47
2021/12/05 16:44:54;;;;;;;23.25;13.77;;;4.30;99.90;;;;;;5009267;28;20053;-48
2021/12/05 16:47:24;;;;;;;18.30;13.05;;;4.30;99.90;;;;;;5017090;28;20170;-48
2021/12/05 16:49:53;;;;;;;17.67;12.93;;;4.30;99.90;;;;;;5020629;28;20514;-47
2021/12/05 16:52:36;;;;;;;20.75;13.82;;;4.40;99.90;;;;;;5019351;28;20410;-48
2021/12/05 16:55:11;;;;;;;30.02;14.60;;;4.30;99.90;;;;;;5015146;28;20433;-48
2021/12/05 16:57:44;;;;;;;17.85;13.27;;;4.30;99.90;;;;;;5008704;28;20060;-48
2021/12/05 17:00:18;;;;;;;24.13;15.10;;;4.30;99.90;;;;;;5019748;28;20042;-48
2021/12/05 17:02:52;;;;;;;21.00;13.57;;;4.30;99.90;;;;;;5021935;28;20187;-47
2021/12/05 17:05:59;;;;;;;18.30;13.38;;;4.30;99.90;;;;;;5020466;28;20053;-50
2021/12/05 17:08:27;;;;;;;28.33;14.77;;;4.40;99.90;;;;;;4959115;28;20058;-49
2021/12/05 17:11:03;;;;;;;20.98;14.38;;;4.30;99.90;;;;;;4963054;28;20062;-49
2021/12/05 17:13:41;;;;;;;24.63;14.48;;;4.30;99.90;;;;;;4960891;28;20129;-50
2021/12/05 17:16:10;;;;;;;21.63;14.80;;;4.40;99.90;;;;;;4956652;28;20057;-52
2021/12/05 17:18:37;;;;;;;21.55;13.65;;;4.30;99.90;;;;;;4962272;28;20059;-51
2021/12/05 17:21:18;;;;;;;16.33;12.07;;;4.30;99.90;;;;;;4946818;28;20069;-48
2021/12/05 17:23:44;;;;;;;17.65;13.38;;;4.30;99.90;;;;;;4963578;28;20055;-48
2021/12/05 17:26:23;;;;;;;17.40;13.13;;;4.30;99.90;;;;;;4962599;28;20046;-50
2021/12/05 17:28:53;;;;;;;21.70;15.05;;;4.40;99.90;;;;;;4963101;28;20164;-47
2021/12/05 17:31:42;;;;;;;27.80;16.90;;;4.40;99.90;;;;;;4949195;28;20102;-49
2021/12/05 17:34:11;;;;;;;22.92;15.80;;;4.40;99.90;;;;;;4950163;28;20070;-47
2021/12/05 17:36:40;;;;;;;19.02;15.15;;;4.40;99.90;;;;;;4950696;28;20114;-49
2021/12/05 17:39:18;;;;;;;22.90;15.95;;;4.40;99.90;;;;;;4957146;28;20597;-48
2021/12/05 17:41:47;;;;;;;25.30;16.88;;;4.40;99.90;;;;;;4944640;28;20051;-51
2021/12/05 17:44:15;;;;;;;25.27;15.45;;;4.40;99.90;;;;;;4984162;28;20057;-47
2021/12/05 17:46:42;;;;;;;25.42;15.80;;;4.40;99.90;;;;;;5016823;28;20057;-49
2021/12/05 17:49:10;;;;;;;24.48;16.92;;;4.40;99.90;;;;;;5021637;28;20092;-48
2021/12/05 17:51:38;;;;;;;27.85;17.25;;;4.40;99.90;;;;;;5012903;28;20583;-48
2021/12/05 17:54:07;;;;;;;30.63;18.25;;;4.40;99.90;;;;;;5010185;28;20095;-49
2021/12/05 17:56:39;;;;;;;30.00;16.73;;;4.40;99.90;;;;;;5025328;28;20095;-49
2021/12/05 17:59:24;;;;;;;31.83;17.02;;;4.40;99.90;;;;;;5024943;28;20053;-49
2021/12/05 18:04:41;;;;;;;28.13;17.10;;;4.40;99.90;;;;;;5025487;28;20451;-48
2021/12/05 18:07:08;;;;;;;33.40;18.80;;;4.40;99.90;;;;;;5022649;28;20077;-48
2021/12/05 18:09:34;;;;;;;29.92;17.70;;;4.40;99.90;;;;;;5024285;28;20065;-48
2021/12/05 18:12:00;;;;;;;28.55;17.92;;;4.40;99.90;;;;;;5023709;28;20476;-50
2021/12/05 18:14:27;;;;;;;31.77;19.15;;;4.40;99.90;;;;;;5023584;28;20092;-48
2021/12/05 18:16:52;;;;;;;28.65;18.52;;;4.50;99.90;;;;;;5023563;28;20053;-49
2021/12/05 18:19:20;;;;;;;26.33;17.83;;;4.40;99.90;;;;;;5025543;28;20057;-50
2021/12/05 18:21:48;;;;;;;26.70;17.60;;;4.50;99.90;;;;;;5025956;28;20065;-48
2021/12/05 18:24:17;;;;;;;31.80;17.92;;;4.40;99.90;;;;;;5024470;28;20057;-53
2021/12/05 18:26:44;;;;;;;29.17;18.48;;;4.40;99.90;;;;;;5005563;28;20054;-50
2021/12/05 18:29:12;;;;;;;30.58;18.85;;;4.40;99.90;;;;;;5022438;28;20563;-49
2021/12/05 18:31:39;;;;;;;32.13;20.70;;;4.40;99.90;;;;;;5024235;28;20069;-48
2021/12/05 18:34:19;;;;;;;31.35;20.35;;;4.40;99.90;;;;;;5016832;28;20666;-47
2021/12/05 18:36:47;;;;;;;32.47;20.10;;;4.40;99.90;;;;;;5006325;28;20076;-49
2021/12/05 18:39:20;;;;;;;35.08;20.73;;;4.40;99.90;;;;;;5020247;28;20045;-47
2021/12/05 18:41:49;;;;;;;33.55;21.17;;;4.40;99.90;;;;;;5022819;28;20084;-48
2021/12/05 18:44:16;;;;;;;35.60;22.00;;;4.40;99.90;;;;;;5022449;28;20131;-48
2021/12/05 18:46:43;;;;;;;35.97;22.02;;;4.40;99.90;;;;;;5022494;28;20404;-47
2021/12/05 18:49:10;;;;;;;35.17;23.58;;;4.40;99.90;;;;;;5022723;28;20091;-47
2021/12/05 18:51:36;;;;;;;32.63;21.65;;;4.40;99.90;;;;;;5022764;28;20041;-48
2021/12/05 18:54:02;;;;;;;32.55;21.55;;;4.40;99.90;;;;;;5004892;28;20095;-47
2021/12/05 18:56:28;;;;;;;36.60;22.35;;;4.40;99.90;;;;;;5022654;28;20072;-47
2021/12/05 18:58:57;;;;;;;36.38;23.98;;;4.40;99.90;;;;;;5022725;28;20045;-48
2021/12/05 19:06:48;;;;;;;38.55;23.60;;;4.40;99.90;;;;;;5021763;28;20061;-47